sensor_id;sensor_type;location;lat;lon;timestamp;P1;durP1;ratioP1;P2;durP2;ratioP2
8909;SDS011;4490;49.072;8.804;2022-10-16T00:01:19;2.27;;;1.50;;
8909;SDS011;4490;49.072;8.804;2022-10-16T00:03:47;2.73;;;1.50;;
8909;SDS011;4490;49.072;8.804;2022-10-16T00:06:13;3.47;;;1.50;;
8909;SDS011;4490;49.072;8.804;2022-10-16T00:08:41;1.60;;;1.40;;
8909;SDS011;4490;49.072;8.804;2022-10-16T00:11:11;2.07;;;1.30;;
8909;SDS011;4490;49.072;8.804;2022-10-16T00:13:42;3.83;;;1.50;;
8909;SDS011;4490;49.072;8.804;2022-10-16T00:16:10;2.90;;;1.33;;
8909;SDS011;4490;49.072;8.804;2022-10-16T00:18:37;1.30;;;1.20;;
8909;SDS011;4490;49.072;8.804;2022-10-16T00:21:04;3.27;;;1.30;;
8909;SDS011;4490;49.072;8.804;2022-10-16T00:23:31;2.10;;;1.30;;
8909;SDS011;4490;49.072;8.804;2022-10-16T00:25:57;1.60;;;1.50;;
8909;SDS011;4490;49.072;8.804;2022-10-16T00:28:24;2.27;;;1.40;;
8909;SDS011;4490;49.072;8.804;2022-10-16T00:30:50;5.97;;;1.37;;
8909;SDS011;4490;49.072;8.804;2022-10-16T00:33:16;3.10;;;1.50;;
8909;SDS011;4490;49.072;8.804;2022-10-16T00:35:41;3.43;;;1.67;;
8909;SDS011;4490;49.072;8.804;2022-10-16T00:38:07;4.23;;;1.70;;
8909;SDS011;4490;49.072;8.804;2022-10-16T00:40:33;3.43;;;1.70;;
8909;SDS011;4490;49.072;8.804;2022-10-16T00:42:58;3.00;;;1.50;;
8909;SDS011;4490;49.072;8.804;2022-10-16T00:45:24;3.23;;;1.60;;
8909;SDS011;4490;49.072;8.804;2022-10-16T00:47:49;2.17;;;1.50;;
8909;SDS011;4490;49.072;8.804;2022-10-16T00:50:32;2.27;;;1.50;;
8909;SDS011;4490;49.072;8.804;2022-10-16T00:52:59;1.40;;;1.30;;
8909;SDS011;4490;49.072;8.804;2022-10-16T00:55:26;2.63;;;1.70;;
8909;SDS011;4490;49.072;8.804;2022-10-16T00:57:54;1.50;;;1.27;;
8909;SDS011;4490;49.072;8.804;2022-10-16T01:00:23;3.13;;;1.60;;
8909;SDS011;4490;49.072;8.804;2022-10-16T01:02:58;1.97;;;1.50;;
8909;SDS011;4490;49.072;8.804;2022-10-16T01:05:28;7.80;;;1.60;;
8909;SDS011;4490;49.072;8.804;2022-10-16T01:08:19;3.10;;;1.60;;
8909;SDS011;4490;49.072;8.804;2022-10-16T01:10:59;3.53;;;1.60;;
8909;SDS011;4490;49.072;8.804;2022-10-16T01:13:55;4.43;;;1.40;;
8909;SDS011;4490;49.072;8.804;2022-10-16T01:16:34;3.00;;;1.53;;
8909;SDS011;4490;49.072;8.804;2022-10-16T01:19:12;3.77;;;1.50;;
8909;SDS011;4490;49.072;8.804;2022-10-16T01:21:43;3.50;;;1.70;;
8909;SDS011;4490;49.072;8.804;2022-10-16T01:24:15;3.90;;;1.50;;
8909;SDS011;4490;49.072;8.804;2022-10-16T01:32:30;4.47;;;1.40;;
8909;SDS011;4490;49.072;8.804;2022-10-16T01:37:41;8.47;;;1.83;;
8909;SDS011;4490;49.072;8.804;2022-10-16T01:40:26;3.63;;;1.50;;
8909;SDS011;4490;49.072;8.804;2022-10-16T01:43:05;3.73;;;1.67;;
8909;SDS011;4490;49.072;8.804;2022-10-16T01:45:36;4.43;;;1.67;;
8909;SDS011;4490;49.072;8.804;2022-10-16T01:48:03;3.93;;;1.60;;
8909;SDS011;4490;49.072;8.804;2022-10-16T01:50:33;2.33;;;1.40;;
8909;SDS011;4490;49.072;8.804;2022-10-16T01:53:02;4.53;;;1.77;;
8909;SDS011;4490;49.072;8.804;2022-10-16T01:55:30;2.57;;;1.43;;
8909;SDS011;4490;49.072;8.804;2022-10-16T01:58:00;1.33;;;1.23;;
8909;SDS011;4490;49.072;8.804;2022-10-16T02:00:30;1.57;;;1.47;;
8909;SDS011;4490;49.072;8.804;2022-10-16T02:02:56;1.87;;;1.47;;
8909;SDS011;4490;49.072;8.804;2022-10-16T02:05:25;3.53;;;1.37;;
8909;SDS011;4490;49.072;8.804;2022-10-16T02:07:58;2.10;;;1.30;;
8909;SDS011;4490;49.072;8.804;2022-10-16T02:10:24;4.10;;;1.30;;
8909;SDS011;4490;49.072;8.804;2022-10-16T02:12:53;1.90;;;1.37;;
8909;SDS011;4490;49.072;8.804;2022-10-16T02:15:25;5.87;;;1.57;;
8909;SDS011;4490;49.072;8.804;2022-10-16T02:17:50;2.80;;;1.50;;
8909;SDS011;4490;49.072;8.804;2022-10-16T02:20:16;3.13;;;1.40;;
8909;SDS011;4490;49.072;8.804;2022-10-16T02:22:43;3.13;;;1.50;;
8909;SDS011;4490;49.072;8.804;2022-10-16T02:25:24;2.27;;;1.40;;
8909;SDS011;4490;49.072;8.804;2022-10-16T02:27:57;2.73;;;1.40;;
8909;SDS011;4490;49.072;8.804;2022-10-16T02:30:39;6.13;;;1.40;;
8909;SDS011;4490;49.072;8.804;2022-10-16T02:33:09;4.90;;;1.70;;
8909;SDS011;4490;49.072;8.804;2022-10-16T02:35:38;4.00;;;1.47;;
8909;SDS011;4490;49.072;8.804;2022-10-16T02:38:06;1.93;;;1.20;;
8909;SDS011;4490;49.072;8.804;2022-10-16T02:40:33;1.20;;;1.20;;
8909;SDS011;4490;49.072;8.804;2022-10-16T02:43:02;3.23;;;1.37;;
8909;SDS011;4490;49.072;8.804;2022-10-16T02:45:29;1.90;;;1.23;;
8909;SDS011;4490;49.072;8.804;2022-10-16T02:47:55;1.40;;;1.30;;
8909;SDS011;4490;49.072;8.804;2022-10-16T02:50:21;3.33;;;1.50;;
8909;SDS011;4490;49.072;8.804;2022-10-16T02:52:47;1.67;;;1.40;;
8909;SDS011;4490;49.072;8.804;2022-10-16T02:55:13;4.03;;;1.50;;
8909;SDS011;4490;49.072;8.804;2022-10-16T02:57:39;7.40;;;1.43;;
8909;SDS011;4490;49.072;8.804;2022-10-16T03:00:05;2.70;;;1.27;;
8909;SDS011;4490;49.072;8.804;2022-10-16T03:02:33;5.10;;;1.47;;
8909;SDS011;4490;49.072;8.804;2022-10-16T03:04:58;1.73;;;1.30;;
8909;SDS011;4490;49.072;8.804;2022-10-16T03:07:24;2.50;;;1.30;;
8909;SDS011;4490;49.072;8.804;2022-10-16T03:09:49;4.10;;;1.47;;
8909;SDS011;4490;49.072;8.804;2022-10-16T03:12:15;1.73;;;1.50;;
8909;SDS011;4490;49.072;8.804;2022-10-16T03:14:41;2.23;;;1.23;;
8909;SDS011;4490;49.072;8.804;2022-10-16T03:17:06;4.20;;;1.57;;
8909;SDS011;4490;49.072;8.804;2022-10-16T03:19:32;2.77;;;1.40;;
8909;SDS011;4490;49.072;8.804;2022-10-16T03:21:57;1.50;;;1.40;;
8909;SDS011;4490;49.072;8.804;2022-10-16T03:24:23;3.90;;;1.60;;
8909;SDS011;4490;49.072;8.804;2022-10-16T03:26:49;3.70;;;2.00;;
8909;SDS011;4490;49.072;8.804;2022-10-16T03:29:14;6.43;;;2.20;;
8909;SDS011;4490;49.072;8.804;2022-10-16T03:31:40;1.70;;;1.20;;
8909;SDS011;4490;49.072;8.804;2022-10-16T03:34:05;1.57;;;1.40;;
8909;SDS011;4490;49.072;8.804;2022-10-16T03:36:31;3.73;;;1.70;;
8909;SDS011;4490;49.072;8.804;2022-10-16T03:38:57;4.50;;;1.40;;
8909;SDS011;4490;49.072;8.804;2022-10-16T03:41:22;3.20;;;1.50;;
8909;SDS011;4490;49.072;8.804;2022-10-16T03:43:48;2.50;;;1.53;;
8909;SDS011;4490;49.072;8.804;2022-10-16T03:46:13;1.47;;;1.23;;
8909;SDS011;4490;49.072;8.804;2022-10-16T03:48:39;4.43;;;1.30;;
8909;SDS011;4490;49.072;8.804;2022-10-16T03:51:05;3.53;;;1.70;;
8909;SDS011;4490;49.072;8.804;2022-10-16T03:53:31;4.87;;;1.37;;
8909;SDS011;4490;49.072;8.804;2022-10-16T03:55:56;4.17;;;1.63;;
8909;SDS011;4490;49.072;8.804;2022-10-16T03:58:23;3.47;;;1.40;;
8909;SDS011;4490;49.072;8.804;2022-10-16T04:00:49;4.50;;;1.50;;
8909;SDS011;4490;49.072;8.804;2022-10-16T04:03:14;1.63;;;1.23;;
8909;SDS011;4490;49.072;8.804;2022-10-16T04:05:40;2.40;;;1.43;;
8909;SDS011;4490;49.072;8.804;2022-10-16T04:08:06;3.43;;;1.83;;
8909;SDS011;4490;49.072;8.804;2022-10-16T04:10:31;1.77;;;1.43;;
8909;SDS011;4490;49.072;8.804;2022-10-16T04:12:57;4.40;;;1.50;;
8909;SDS011;4490;49.072;8.804;2022-10-16T04:15:23;1.60;;;1.50;;
8909;SDS011;4490;49.072;8.804;2022-10-16T04:17:50;3.30;;;1.40;;
8909;SDS011;4490;49.072;8.804;2022-10-16T04:20:16;6.63;;;1.50;;
8909;SDS011;4490;49.072;8.804;2022-10-16T04:22:42;3.57;;;1.60;;
8909;SDS011;4490;49.072;8.804;2022-10-16T04:25:08;4.30;;;1.40;;
8909;SDS011;4490;49.072;8.804;2022-10-16T04:27:34;1.87;;;1.60;;
8909;SDS011;4490;49.072;8.804;2022-10-16T04:30:00;1.47;;;1.33;;
8909;SDS011;4490;49.072;8.804;2022-10-16T04:32:26;2.20;;;1.50;;
8909;SDS011;4490;49.072;8.804;2022-10-16T04:34:52;5.43;;;1.70;;
8909;SDS011;4490;49.072;8.804;2022-10-16T04:37:18;6.67;;;1.50;;
8909;SDS011;4490;49.072;8.804;2022-10-16T04:39:43;1.67;;;1.37;;
8909;SDS011;4490;49.072;8.804;2022-10-16T04:42:10;3.37;;;1.60;;
8909;SDS011;4490;49.072;8.804;2022-10-16T04:44:36;2.13;;;1.70;;
8909;SDS011;4490;49.072;8.804;2022-10-16T04:47:01;5.80;;;2.07;;
8909;SDS011;4490;49.072;8.804;2022-10-16T04:49:27;1.97;;;1.47;;
8909;SDS011;4490;49.072;8.804;2022-10-16T04:51:53;2.80;;;1.57;;
8909;SDS011;4490;49.072;8.804;2022-10-16T04:54:18;2.57;;;1.77;;
8909;SDS011;4490;49.072;8.804;2022-10-16T04:56:44;2.37;;;2.10;;
8909;SDS011;4490;49.072;8.804;2022-10-16T04:59:15;2.90;;;1.87;;
8909;SDS011;4490;49.072;8.804;2022-10-16T05:01:41;2.33;;;1.60;;
8909;SDS011;4490;49.072;8.804;2022-10-16T05:04:08;2.87;;;1.70;;
8909;SDS011;4490;49.072;8.804;2022-10-16T05:06:33;1.80;;;1.67;;
8909;SDS011;4490;49.072;8.804;2022-10-16T05:08:59;1.50;;;1.40;;
8909;SDS011;4490;49.072;8.804;2022-10-16T05:11:24;1.80;;;1.60;;
8909;SDS011;4490;49.072;8.804;2022-10-16T05:13:50;2.20;;;1.70;;
8909;SDS011;4490;49.072;8.804;2022-10-16T05:16:16;1.53;;;1.40;;
8909;SDS011;4490;49.072;8.804;2022-10-16T05:18:42;2.77;;;1.60;;
8909;SDS011;4490;49.072;8.804;2022-10-16T05:21:08;3.93;;;1.50;;
8909;SDS011;4490;49.072;8.804;2022-10-16T05:23:33;1.53;;;1.33;;
8909;SDS011;4490;49.072;8.804;2022-10-16T05:25:59;3.07;;;1.50;;
8909;SDS011;4490;49.072;8.804;2022-10-16T05:28:26;3.57;;;1.60;;
8909;SDS011;4490;49.072;8.804;2022-10-16T05:30:53;2.27;;;1.40;;
8909;SDS011;4490;49.072;8.804;2022-10-16T05:33:20;1.60;;;1.50;;
8909;SDS011;4490;49.072;8.804;2022-10-16T05:35:46;1.60;;;1.50;;
8909;SDS011;4490;49.072;8.804;2022-10-16T05:38:11;3.23;;;1.67;;
8909;SDS011;4490;49.072;8.804;2022-10-16T05:40:37;3.80;;;1.90;;
8909;SDS011;4490;49.072;8.804;2022-10-16T05:43:03;1.73;;;1.40;;
8909;SDS011;4490;49.072;8.804;2022-10-16T05:45:29;1.53;;;1.43;;
8909;SDS011;4490;49.072;8.804;2022-10-16T05:47:54;2.20;;;1.30;;
8909;SDS011;4490;49.072;8.804;2022-10-16T05:50:20;3.27;;;1.60;;
8909;SDS011;4490;49.072;8.804;2022-10-16T05:52:46;4.17;;;1.87;;
8909;SDS011;4490;49.072;8.804;2022-10-16T05:55:11;1.97;;;1.70;;
8909;SDS011;4490;49.072;8.804;2022-10-16T05:57:37;3.30;;;1.60;;
8909;SDS011;4490;49.072;8.804;2022-10-16T06:00:03;5.90;;;1.60;;
8909;SDS011;4490;49.072;8.804;2022-10-16T06:02:29;3.83;;;1.70;;
8909;SDS011;4490;49.072;8.804;2022-10-16T06:04:55;3.23;;;1.80;;
8909;SDS011;4490;49.072;8.804;2022-10-16T06:07:21;5.03;;;2.10;;
8909;SDS011;4490;49.072;8.804;2022-10-16T06:09:50;3.03;;;1.50;;
8909;SDS011;4490;49.072;8.804;2022-10-16T06:12:17;4.83;;;1.80;;
8909;SDS011;4490;49.072;8.804;2022-10-16T06:14:44;3.30;;;1.83;;
8909;SDS011;4490;49.072;8.804;2022-10-16T06:17:11;3.57;;;1.60;;
8909;SDS011;4490;49.072;8.804;2022-10-16T06:19:38;1.93;;;1.53;;
8909;SDS011;4490;49.072;8.804;2022-10-16T06:22:04;2.00;;;1.40;;
8909;SDS011;4490;49.072;8.804;2022-10-16T06:24:29;1.60;;;1.50;;
8909;SDS011;4490;49.072;8.804;2022-10-16T06:26:55;4.90;;;1.60;;
8909;SDS011;4490;49.072;8.804;2022-10-16T06:29:20;2.70;;;1.63;;
8909;SDS011;4490;49.072;8.804;2022-10-16T06:31:46;3.83;;;1.50;;
8909;SDS011;4490;49.072;8.804;2022-10-16T06:34:11;3.93;;;1.70;;
8909;SDS011;4490;49.072;8.804;2022-10-16T06:36:38;1.60;;;1.50;;
8909;SDS011;4490;49.072;8.804;2022-10-16T06:39:04;2.27;;;1.77;;
8909;SDS011;4490;49.072;8.804;2022-10-16T06:41:32;4.03;;;1.87;;
8909;SDS011;4490;49.072;8.804;2022-10-16T06:43:58;3.03;;;1.60;;
8909;SDS011;4490;49.072;8.804;2022-10-16T06:46:24;2.50;;;1.73;;
8909;SDS011;4490;49.072;8.804;2022-10-16T06:48:50;1.83;;;1.50;;
8909;SDS011;4490;49.072;8.804;2022-10-16T06:51:17;4.97;;;1.93;;
8909;SDS011;4490;49.072;8.804;2022-10-16T06:53:46;4.13;;;1.90;;
8909;SDS011;4490;49.072;8.804;2022-10-16T06:56:18;7.03;;;2.83;;
8909;SDS011;4490;49.072;8.804;2022-10-16T06:58:46;5.93;;;3.80;;
8909;SDS011;4490;49.072;8.804;2022-10-16T07:01:12;6.10;;;4.47;;
8909;SDS011;4490;49.072;8.804;2022-10-16T07:03:40;4.60;;;3.03;;
8909;SDS011;4490;49.072;8.804;2022-10-16T07:06:08;4.70;;;3.37;;
8909;SDS011;4490;49.072;8.804;2022-10-16T07:08:36;4.23;;;2.80;;
8909;SDS011;4490;49.072;8.804;2022-10-16T07:11:03;4.90;;;2.60;;
8909;SDS011;4490;49.072;8.804;2022-10-16T07:13:37;3.77;;;2.40;;
8909;SDS011;4490;49.072;8.804;2022-10-16T07:16:07;4.97;;;2.00;;
8909;SDS011;4490;49.072;8.804;2022-10-16T07:18:35;2.93;;;1.90;;
8909;SDS011;4490;49.072;8.804;2022-10-16T07:21:34;3.10;;;1.97;;
8909;SDS011;4490;49.072;8.804;2022-10-16T07:23:58;3.10;;;1.70;;
8909;SDS011;4490;49.072;8.804;2022-10-16T07:26:26;4.00;;;1.90;;
8909;SDS011;4490;49.072;8.804;2022-10-16T07:28:52;6.10;;;2.50;;
8909;SDS011;4490;49.072;8.804;2022-10-16T07:31:19;4.50;;;2.60;;
8909;SDS011;4490;49.072;8.804;2022-10-16T07:33:46;6.63;;;2.30;;
8909;SDS011;4490;49.072;8.804;2022-10-16T07:36:13;5.20;;;2.37;;
8909;SDS011;4490;49.072;8.804;2022-10-16T07:38:40;3.30;;;1.80;;
8909;SDS011;4490;49.072;8.804;2022-10-16T07:41:07;4.33;;;1.87;;
8909;SDS011;4490;49.072;8.804;2022-10-16T07:43:35;2.90;;;1.77;;
8909;SDS011;4490;49.072;8.804;2022-10-16T07:46:01;2.40;;;1.80;;
8909;SDS011;4490;49.072;8.804;2022-10-16T07:48:28;3.50;;;1.40;;
8909;SDS011;4490;49.072;8.804;2022-10-16T07:50:58;4.10;;;1.47;;
8909;SDS011;4490;49.072;8.804;2022-10-16T07:53:25;2.77;;;1.40;;
8909;SDS011;4490;49.072;8.804;2022-10-16T07:55:51;1.67;;;1.47;;
8909;SDS011;4490;49.072;8.804;2022-10-16T07:58:17;2.83;;;1.50;;
8909;SDS011;4490;49.072;8.804;2022-10-16T08:00:42;4.27;;;1.53;;
8909;SDS011;4490;49.072;8.804;2022-10-16T08:03:08;3.50;;;1.40;;
8909;SDS011;4490;49.072;8.804;2022-10-16T08:05:34;3.20;;;1.60;;
8909;SDS011;4490;49.072;8.804;2022-10-16T08:08:00;2.70;;;1.60;;
8909;SDS011;4490;49.072;8.804;2022-10-16T08:10:27;4.20;;;1.60;;
8909;SDS011;4490;49.072;8.804;2022-10-16T08:12:53;2.20;;;1.77;;
8909;SDS011;4490;49.072;8.804;2022-10-16T08:15:19;2.60;;;1.90;;
8909;SDS011;4490;49.072;8.804;2022-10-16T08:17:53;3.97;;;1.80;;
8909;SDS011;4490;49.072;8.804;2022-10-16T08:20:23;3.40;;;2.07;;
8909;SDS011;4490;49.072;8.804;2022-10-16T08:22:49;4.03;;;2.10;;
8909;SDS011;4490;49.072;8.804;2022-10-16T08:25:15;4.30;;;2.37;;
8909;SDS011;4490;49.072;8.804;2022-10-16T08:27:41;4.00;;;1.80;;
8909;SDS011;4490;49.072;8.804;2022-10-16T08:30:07;3.00;;;1.60;;
8909;SDS011;4490;49.072;8.804;2022-10-16T08:32:33;3.58;;;1.73;;
8909;SDS011;4490;49.072;8.804;2022-10-16T08:34:59;4.77;;;1.70;;
8909;SDS011;4490;49.072;8.804;2022-10-16T08:37:24;4.72;;;1.80;;
8909;SDS011;4490;49.072;8.804;2022-10-16T08:39:54;2.75;;;1.60;;
8909;SDS011;4490;49.072;8.804;2022-10-16T08:50:43;1.73;;;1.60;;
8909;SDS011;4490;49.072;8.804;2022-10-16T08:53:15;3.92;;;2.03;;
8909;SDS011;4490;49.072;8.804;2022-10-16T08:55:45;4.28;;;1.60;;
8909;SDS011;4490;49.072;8.804;2022-10-16T08:58:15;3.63;;;2.33;;
8909;SDS011;4490;49.072;8.804;2022-10-16T09:00:44;7.05;;;1.58;;
8909;SDS011;4490;49.072;8.804;2022-10-16T09:11:23;3.67;;;1.38;;
8909;SDS011;4490;49.072;8.804;2022-10-16T09:16:37;2.30;;;1.65;;
8909;SDS011;4490;49.072;8.804;2022-10-16T09:19:12;5.93;;;1.75;;
8909;SDS011;4490;49.072;8.804;2022-10-16T09:21:42;3.03;;;1.50;;
8909;SDS011;4490;49.072;8.804;2022-10-16T09:24:12;1.65;;;1.42;;
8909;SDS011;4490;49.072;8.804;2022-10-16T09:26:38;9.68;;;1.80;;
8909;SDS011;4490;49.072;8.804;2022-10-16T09:29:04;3.95;;;1.73;;
8909;SDS011;4490;49.072;8.804;2022-10-16T09:31:30;4.80;;;1.42;;
8909;SDS011;4490;49.072;8.804;2022-10-16T09:33:57;2.42;;;1.50;;
8909;SDS011;4490;49.072;8.804;2022-10-16T09:36:25;4.25;;;1.80;;
8909;SDS011;4490;49.072;8.804;2022-10-16T09:39:06;4.20;;;1.70;;
8909;SDS011;4490;49.072;8.804;2022-10-16T09:41:40;2.58;;;1.70;;
8909;SDS011;4490;49.072;8.804;2022-10-16T09:47:03;3.78;;;1.70;;
8909;SDS011;4490;49.072;8.804;2022-10-16T09:49:59;4.22;;;1.42;;
8909;SDS011;4490;49.072;8.804;2022-10-16T09:52:29;2.72;;;1.58;;
8909;SDS011;4490;49.072;8.804;2022-10-16T09:54:56;3.58;;;1.70;;
8909;SDS011;4490;49.072;8.804;2022-10-16T09:57:27;2.08;;;1.45;;
8909;SDS011;4490;49.072;8.804;2022-10-16T09:59:55;3.08;;;1.60;;
8909;SDS011;4490;49.072;8.804;2022-10-16T10:04:59;1.70;;;1.40;;
8909;SDS011;4490;49.072;8.804;2022-10-16T10:07:32;6.03;;;1.70;;
8909;SDS011;4490;49.072;8.804;2022-10-16T10:10:03;2.38;;;1.58;;
8909;SDS011;4490;49.072;8.804;2022-10-16T10:12:31;3.78;;;1.60;;
8909;SDS011;4490;49.072;8.804;2022-10-16T10:15:04;5.60;;;1.40;;
8909;SDS011;4490;49.072;8.804;2022-10-16T10:17:44;3.00;;;1.60;;
8909;SDS011;4490;49.072;8.804;2022-10-16T10:22:59;2.03;;;1.40;;
8909;SDS011;4490;49.072;8.804;2022-10-16T10:25:35;1.70;;;1.60;;
8909;SDS011;4490;49.072;8.804;2022-10-16T10:31:21;2.58;;;1.98;;
8909;SDS011;4490;49.072;8.804;2022-10-16T10:36:50;2.20;;;2.00;;
8909;SDS011;4490;49.072;8.804;2022-10-16T10:39:43;2.40;;;1.58;;
8909;SDS011;4490;49.072;8.804;2022-10-16T10:42:46;2.10;;;1.50;;
8909;SDS011;4490;49.072;8.804;2022-10-16T10:48:38;3.47;;;2.00;;
8909;SDS011;4490;49.072;8.804;2022-10-16T10:51:14;3.50;;;1.58;;
8909;SDS011;4490;49.072;8.804;2022-10-16T10:54:04;2.28;;;1.40;;
8909;SDS011;4490;49.072;8.804;2022-10-16T11:01:39;2.53;;;1.40;;
8909;SDS011;4490;49.072;8.804;2022-10-16T11:06:59;3.40;;;1.73;;
8909;SDS011;4490;49.072;8.804;2022-10-16T11:09:58;1.70;;;1.42;;
8909;SDS011;4490;49.072;8.804;2022-10-16T11:12:44;3.75;;;1.30;;
8909;SDS011;4490;49.072;8.804;2022-10-16T11:15:27;3.03;;;1.67;;
8909;SDS011;4490;49.072;8.804;2022-10-16T11:18:11;4.13;;;1.40;;
8909;SDS011;4490;49.072;8.804;2022-10-16T11:21:06;2.40;;;1.60;;
8909;SDS011;4490;49.072;8.804;2022-10-16T11:26:21;3.20;;;1.58;;
8909;SDS011;4490;49.072;8.804;2022-10-16T11:28:54;2.78;;;1.50;;
8909;SDS011;4490;49.072;8.804;2022-10-16T11:31:32;1.70;;;1.60;;
8909;SDS011;4490;49.072;8.804;2022-10-16T11:34:17;5.47;;;1.63;;
8909;SDS011;4490;49.072;8.804;2022-10-16T11:39:27;3.08;;;1.70;;
8909;SDS011;4490;49.072;8.804;2022-10-16T11:42:10;3.40;;;1.58;;
8909;SDS011;4490;49.072;8.804;2022-10-16T11:44:44;3.55;;;1.50;;
8909;SDS011;4490;49.072;8.804;2022-10-16T11:50:02;1.90;;;1.50;;
8909;SDS011;4490;49.072;8.804;2022-10-16T11:52:40;2.85;;;1.92;;
8909;SDS011;4490;49.072;8.804;2022-10-16T11:57:39;2.70;;;1.70;;
8909;SDS011;4490;49.072;8.804;2022-10-16T12:08:51;3.05;;;1.67;;
8909;SDS011;4490;49.072;8.804;2022-10-16T12:11:32;2.72;;;1.73;;
8909;SDS011;4490;49.072;8.804;2022-10-16T12:14:48;3.47;;;1.63;;
8909;SDS011;4490;49.072;8.804;2022-10-16T12:17:04;5.45;;;1.85;;
8909;SDS011;4490;49.072;8.804;2022-10-16T12:19:59;4.20;;;1.55;;
8909;SDS011;4490;49.072;8.804;2022-10-16T12:22:28;7.15;;;1.83;;
8909;SDS011;4490;49.072;8.804;2022-10-16T12:24:55;1.70;;;1.60;;
8909;SDS011;4490;49.072;8.804;2022-10-16T12:27:28;4.47;;;1.60;;
8909;SDS011;4490;49.072;8.804;2022-10-16T12:29:59;1.50;;;1.40;;
8909;SDS011;4490;49.072;8.804;2022-10-16T12:34:53;6.22;;;1.85;;
8909;SDS011;4490;49.072;8.804;2022-10-16T12:37:20;3.35;;;1.80;;
8909;SDS011;4490;49.072;8.804;2022-10-16T12:39:49;2.67;;;1.60;;
8909;SDS011;4490;49.072;8.804;2022-10-16T12:42:21;4.70;;;1.90;;
8909;SDS011;4490;49.072;8.804;2022-10-16T12:44:49;2.67;;;1.95;;
8909;SDS011;4490;49.072;8.804;2022-10-16T12:47:19;3.30;;;1.70;;
8909;SDS011;4490;49.072;8.804;2022-10-16T12:49:51;3.67;;;2.40;;
8909;SDS011;4490;49.072;8.804;2022-10-16T12:52:31;3.83;;;2.80;;
8909;SDS011;4490;49.072;8.804;2022-10-16T12:55:02;4.35;;;3.60;;
8909;SDS011;4490;49.072;8.804;2022-10-16T12:57:35;2.95;;;2.10;;
8909;SDS011;4490;49.072;8.804;2022-10-16T13:00:12;2.30;;;1.80;;
8909;SDS011;4490;49.072;8.804;2022-10-16T13:16:20;4.68;;;2.08;;
8909;SDS011;4490;49.072;8.804;2022-10-16T13:19:02;4.03;;;1.92;;
8909;SDS011;4490;49.072;8.804;2022-10-16T13:21:44;3.72;;;1.88;;
8909;SDS011;4490;49.072;8.804;2022-10-16T13:24:26;4.28;;;2.00;;
8909;SDS011;4490;49.072;8.804;2022-10-16T13:26:57;4.30;;;1.70;;
8909;SDS011;4490;49.072;8.804;2022-10-16T13:29:28;1.98;;;1.67;;
8909;SDS011;4490;49.072;8.804;2022-10-16T13:31:59;2.10;;;1.73;;
8909;SDS011;4490;49.072;8.804;2022-10-16T13:34:26;3.05;;;1.60;;
8909;SDS011;4490;49.072;8.804;2022-10-16T13:36:52;2.83;;;1.90;;
8909;SDS011;4490;49.072;8.804;2022-10-16T13:39:23;2.75;;;1.70;;
8909;SDS011;4490;49.072;8.804;2022-10-16T13:44:39;6.90;;;1.77;;
8909;SDS011;4490;49.072;8.804;2022-10-16T13:49:42;4.15;;;1.83;;
8909;SDS011;4490;49.072;8.804;2022-10-16T13:52:16;2.90;;;1.60;;
8909;SDS011;4490;49.072;8.804;2022-10-16T13:54:46;2.60;;;1.60;;
8909;SDS011;4490;49.072;8.804;2022-10-16T13:57:13;4.85;;;1.98;;
8909;SDS011;4490;49.072;8.804;2022-10-16T13:59:39;2.38;;;1.88;;
8909;SDS011;4490;49.072;8.804;2022-10-16T14:02:29;2.88;;;1.90;;
8909;SDS011;4490;49.072;8.804;2022-10-16T14:04:55;4.53;;;1.80;;
8909;SDS011;4490;49.072;8.804;2022-10-16T14:07:26;4.03;;;1.80;;
8909;SDS011;4490;49.072;8.804;2022-10-16T14:09:54;3.60;;;1.73;;
8909;SDS011;4490;49.072;8.804;2022-10-16T14:12:20;3.22;;;1.90;;
8909;SDS011;4490;49.072;8.804;2022-10-16T14:14:49;5.70;;;1.98;;
8909;SDS011;4490;49.072;8.804;2022-10-16T14:17:24;3.13;;;1.73;;
8909;SDS011;4490;49.072;8.804;2022-10-16T14:19:54;6.53;;;1.90;;
8909;SDS011;4490;49.072;8.804;2022-10-16T14:22:32;2.75;;;1.77;;
8909;SDS011;4490;49.072;8.804;2022-10-16T14:25:16;3.65;;;2.00;;
8909;SDS011;4490;49.072;8.804;2022-10-16T14:27:56;3.20;;;1.77;;
8909;SDS011;4490;49.072;8.804;2022-10-16T14:30:22;4.90;;;1.80;;
8909;SDS011;4490;49.072;8.804;2022-10-16T14:32:58;2.30;;;2.10;;
8909;SDS011;4490;49.072;8.804;2022-10-16T14:35:33;3.17;;;1.75;;
8909;SDS011;4490;49.072;8.804;2022-10-16T14:38:05;2.88;;;1.92;;
8909;SDS011;4490;49.072;8.804;2022-10-16T14:40:45;2.75;;;1.90;;
8909;SDS011;4490;49.072;8.804;2022-10-16T14:43:24;2.72;;;2.00;;
8909;SDS011;4490;49.072;8.804;2022-10-16T14:45:59;2.70;;;1.60;;
8909;SDS011;4490;49.072;8.804;2022-10-16T14:48:27;3.95;;;2.05;;
8909;SDS011;4490;49.072;8.804;2022-10-16T14:50:52;2.42;;;1.98;;
8909;SDS011;4490;49.072;8.804;2022-10-16T14:53:18;6.35;;;1.90;;
8909;SDS011;4490;49.072;8.804;2022-10-16T14:55:44;4.88;;;2.10;;
8909;SDS011;4490;49.072;8.804;2022-10-16T14:58:20;8.15;;;1.88;;
8909;SDS011;4490;49.072;8.804;2022-10-16T15:00:47;6.28;;;1.85;;
8909;SDS011;4490;49.072;8.804;2022-10-16T15:03:13;2.78;;;2.30;;
8909;SDS011;4490;49.072;8.804;2022-10-16T15:05:39;3.63;;;1.83;;
8909;SDS011;4490;49.072;8.804;2022-10-16T15:08:05;4.45;;;1.85;;
8909;SDS011;4490;49.072;8.804;2022-10-16T15:10:31;3.33;;;2.28;;
8909;SDS011;4490;49.072;8.804;2022-10-16T15:13:02;4.28;;;1.90;;
8909;SDS011;4490;49.072;8.804;2022-10-16T15:15:37;2.03;;;1.80;;
8909;SDS011;4490;49.072;8.804;2022-10-16T15:18:14;3.03;;;2.00;;
8909;SDS011;4490;49.072;8.804;2022-10-16T15:20:45;5.40;;;1.90;;
8909;SDS011;4490;49.072;8.804;2022-10-16T15:23:13;4.25;;;2.25;;
8909;SDS011;4490;49.072;8.804;2022-10-16T15:25:42;4.93;;;2.08;;
8909;SDS011;4490;49.072;8.804;2022-10-16T15:28:09;5.43;;;2.38;;
8909;SDS011;4490;49.072;8.804;2022-10-16T15:30:36;6.78;;;2.20;;
8909;SDS011;4490;49.072;8.804;2022-10-16T15:33:02;5.95;;;2.15;;
8909;SDS011;4490;49.072;8.804;2022-10-16T15:35:29;2.97;;;1.98;;
8909;SDS011;4490;49.072;8.804;2022-10-16T15:37:55;4.45;;;1.90;;
8909;SDS011;4490;49.072;8.804;2022-10-16T15:40:21;3.00;;;1.92;;
8909;SDS011;4490;49.072;8.804;2022-10-16T15:42:47;5.38;;;2.22;;
8909;SDS011;4490;49.072;8.804;2022-10-16T15:45:14;4.65;;;1.95;;
8909;SDS011;4490;49.072;8.804;2022-10-16T15:47:44;3.65;;;2.60;;
8909;SDS011;4490;49.072;8.804;2022-10-16T15:50:10;5.25;;;2.30;;
8909;SDS011;4490;49.072;8.804;2022-10-16T15:52:37;3.47;;;2.60;;
8909;SDS011;4490;49.072;8.804;2022-10-16T15:55:04;4.45;;;2.08;;
8909;SDS011;4490;49.072;8.804;2022-10-16T15:57:34;4.03;;;2.22;;
8909;SDS011;4490;49.072;8.804;2022-10-16T16:00:03;5.78;;;2.40;;
8909;SDS011;4490;49.072;8.804;2022-10-16T16:02:33;2.95;;;2.10;;
8909;SDS011;4490;49.072;8.804;2022-10-16T16:04:59;4.57;;;2.40;;
8909;SDS011;4490;49.072;8.804;2022-10-16T16:07:25;5.85;;;2.40;;
8909;SDS011;4490;49.072;8.804;2022-10-16T16:09:52;4.60;;;3.17;;
8909;SDS011;4490;49.072;8.804;2022-10-16T16:12:18;7.03;;;2.60;;
8909;SDS011;4490;49.072;8.804;2022-10-16T16:14:43;7.63;;;2.15;;
8909;SDS011;4490;49.072;8.804;2022-10-16T16:17:11;3.20;;;2.28;;
8909;SDS011;4490;49.072;8.804;2022-10-16T16:19:36;5.80;;;2.30;;
8909;SDS011;4490;49.072;8.804;2022-10-16T16:22:02;10.50;;;2.00;;
8909;SDS011;4490;49.072;8.804;2022-10-16T16:24:28;5.00;;;2.35;;
8909;SDS011;4490;49.072;8.804;2022-10-16T16:26:53;9.35;;;2.47;;
8909;SDS011;4490;49.072;8.804;2022-10-16T16:29:19;5.30;;;2.22;;
8909;SDS011;4490;49.072;8.804;2022-10-16T16:31:44;4.75;;;2.10;;
8909;SDS011;4490;49.072;8.804;2022-10-16T16:34:12;5.13;;;2.38;;
8909;SDS011;4490;49.072;8.804;2022-10-16T16:36:38;4.13;;;2.03;;
8909;SDS011;4490;49.072;8.804;2022-10-16T16:39:04;5.32;;;2.10;;
8909;SDS011;4490;49.072;8.804;2022-10-16T16:41:30;6.85;;;2.50;;
8909;SDS011;4490;49.072;8.804;2022-10-16T16:44:04;5.45;;;2.20;;
8909;SDS011;4490;49.072;8.804;2022-10-16T16:46:33;6.07;;;2.35;;
8909;SDS011;4490;49.072;8.804;2022-10-16T16:48:59;5.72;;;2.30;;
8909;SDS011;4490;49.072;8.804;2022-10-16T16:51:26;3.00;;;2.28;;
8909;SDS011;4490;49.072;8.804;2022-10-16T16:53:52;3.15;;;2.38;;
8909;SDS011;4490;49.072;8.804;2022-10-16T16:56:19;4.50;;;2.70;;
8909;SDS011;4490;49.072;8.804;2022-10-16T16:58:47;5.32;;;2.67;;
8909;SDS011;4490;49.072;8.804;2022-10-16T17:01:13;7.88;;;3.67;;
8909;SDS011;4490;49.072;8.804;2022-10-16T17:03:41;4.35;;;2.38;;